Time;durP1;ratioP1;P1;durP2;ratioP2;P2;SDS_P1;SDS_P2;PMS_P1;PMS_P2;Temp;Humidity;BMP_temperature;BMP_pressure;BME280_temperature;BME280_humidity;BME280_pressure;Samples;Min_cycle;Max_cycle;Signal;HPM_P1;HPM_P2
2022/12/22 03:32:38;;;;;;;0.60;0.30;;;5.60;99.90;;;;;;20183083;29;20045;-61
2022/12/22 03:52:59;;;;;;;0.00;0.00;;;5.60;99.90;;;;;;20182720;29;20052;-61
2022/12/22 04:03:01;;;;;;;0.00;0.00;;;6.10;99.90;;;;;;20181957;29;20045;-62
2022/12/22 04:13:03;;;;;;;0.10;0.00;;;6.20;99.90;;;;;;20170137;29;20477;-61
2022/12/22 04:23:04;;;;;;;0.52;0.00;;;6.30;99.90;;;;;;20197114;29;20045;-61
2022/12/22 04:33:06;;;;;;;0.20;0.10;;;6.30;99.90;;;;;;20177625;29;20045;-62
2022/12/22 04:43:07;;;;;;;0.60;0.40;;;6.10;99.90;;;;;;20196242;29;20116;-61
2022/12/22 04:53:09;;;;;;;2.30;1.40;;;5.10;99.90;;;;;;20194697;29;20120;-61
2022/12/22 05:03:11;;;;;;;0.20;0.10;;;4.80;99.90;;;;;;20191946;29;20048;-61
2022/12/22 05:13:12;;;;;;;0.60;0.32;;;5.00;99.90;;;;;;20192497;29;20056;-61
2022/12/22 05:23:14;;;;;;;0.00;0.00;;;5.40;99.90;;;;;;20189230;29;20049;-61
2022/12/22 05:33:15;;;;;;;0.28;0.00;;;5.40;99.90;;;;;;20189485;29;20164;-61
2022/12/22 05:43:17;;;;;;;1.40;0.47;;;6.10;99.90;;;;;;20192289;29;20484;-61
2022/12/22 05:53:19;;;;;;;0.10;0.00;;;5.80;99.90;;;;;;20191481;29;20384;-61
2022/12/22 06:03:20;;;;;;;2.80;1.90;;;6.00;99.90;;;;;;20187542;29;20069;-61
2022/12/22 06:13:22;;;;;;;1.67;0.98;;;5.40;99.90;;;;;;20189174;29;20057;-61
2022/12/22 06:23:24;;;;;;;0.10;0.10;;;4.40;99.90;;;;;;20170041;29;20048;-61
2022/12/22 06:33:26;;;;;;;1.05;0.60;;;4.90;99.90;;;;;;20169149;29;20045;-61
2022/12/22 06:43:27;;;;;;;0.82;0.40;;;5.70;99.90;;;;;;20185502;29;20056;-61
2022/12/22 06:53:29;;;;;;;1.55;1.05;;;5.20;99.90;;;;;;20187816;29;20045;-61
2022/12/22 07:03:30;;;;;;;1.17;0.50;;;4.80;99.90;;;;;;20183792;29;20415;-61
2022/12/22 07:13:34;;;;;;;0.35;0.00;;;4.90;99.90;;;;;;20186643;29;20041;-61
2022/12/22 07:23:38;;;;;;;0.30;0.10;;;4.90;99.90;;;;;;20169409;29;20411;-62
2022/12/22 07:33:39;;;;;;;0.00;0.00;;;5.20;99.90;;;;;;20166217;29;20097;-61
2022/12/22 07:43:41;;;;;;;0.00;0.00;;;5.90;99.90;;;;;;20168661;29;20191;-61
2022/12/22 07:54:05;;;;;;;0.00;0.00;;;6.10;99.90;;;;;;20196962;29;20052;-61
2022/12/22 08:04:25;;;;;;;0.08;0.00;;;6.30;99.90;;;;;;20196408;29;20049;-60
2022/12/22 08:14:27;;;;;;;0.10;0.00;;;6.30;99.90;;;;;;20180713;29;20464;-60
2022/12/22 08:24:28;;;;;;;0.20;0.05;;;6.30;99.90;;;;;;20196783;29;20049;-61
2022/12/22 08:34:50;;;;;;;0.03;0.00;;;6.10;99.90;;;;;;20195029;29;20043;-61
2022/12/22 08:44:52;;;;;;;0.10;0.00;;;6.20;99.90;;;;;;20193667;29;20056;-61
2022/12/22 08:54:54;;;;;;;0.00;0.00;;;6.30;99.90;;;;;;20195586;29;20040;-61
2022/12/22 09:04:56;;;;;;;0.10;0.00;;;6.20;99.90;;;;;;20192268;29;20093;-61
2022/12/22 09:14:58;;;;;;;0.32;0.30;;;6.20;99.90;;;;;;20190999;29;20053;-60
2022/12/22 09:24:59;;;;;;;0.00;0.00;;;6.20;99.90;;;;;;20186954;29;20124;-61
2022/12/22 09:35:01;;;;;;;0.00;0.00;;;5.90;99.90;;;;;;20193729;29;20155;-60
2022/12/22 09:45:03;;;;;;;0.20;0.00;;;6.20;99.90;;;;;;20185514;29;20097;-61
2022/12/22 09:55:22;;;;;;;0.10;0.00;;;5.80;99.90;;;;;;20191961;29;20105;-61
2022/12/22 10:05:37;;;;;;;0.50;0.30;;;6.10;99.90;;;;;;20174152;29;20105;-60
2022/12/22 10:15:40;;;;;;;0.20;0.10;;;5.90;99.90;;;;;;20186540;29;20049;-61
2022/12/22 10:25:59;;;;;;;0.10;0.03;;;6.50;99.90;;;;;;20188515;29;20045;-61
2022/12/22 10:36:01;;;;;;;0.17;0.10;;;7.00;99.90;;;;;;20188583;29;20049;-60
2022/12/22 10:46:03;;;;;;;0.10;0.00;;;7.30;99.90;;;;;;20185058;29;20049;-60
2022/12/22 10:56:07;;;;;;;0.45;0.10;;;7.40;99.90;;;;;;20187554;29;20044;-57
2022/12/22 11:06:12;;;;;;;0.40;0.20;;;7.70;99.90;;;;;;20183243;29;20049;-57
2022/12/22 11:16:18;;;;;;;0.08;0.00;;;7.90;99.90;;;;;;20183532;29;20470;-62
2022/12/22 11:26:41;;;;;;;0.32;0.10;;;7.80;99.90;;;;;;20195891;29;20049;-60
2022/12/22 11:36:48;;;;;;;0.08;0.08;;;8.00;99.90;;;;;;20201023;29;20082;-58
2022/12/22 11:47:25;;;;;;;0.00;0.00;;;8.90;99.90;;;;;;20177556;29;20041;-58
2022/12/22 11:57:32;;;;;;;0.10;0.10;;;9.80;99.90;;;;;;19876903;29;20256;-57
2022/12/22 12:07:43;;;;;;;0.10;0.10;;;10.50;99.90;;;;;;19876269;29;20159;-60
2022/12/22 12:18:18;;;;;;;1.20;0.47;;;10.70;99.90;;;;;;19860808;29;20066;-60
2022/12/22 12:28:29;;;;;;;1.55;0.60;;;10.90;99.90;;;;;;20046718;29;20563;-60
2022/12/22 12:38:37;;;;;;;0.68;0.50;;;10.30;99.90;;;;;;20195156;29;20400;-60
2022/12/22 12:48:39;;;;;;;1.77;0.73;;;9.50;99.90;;;;;;20193244;29;20492;-60
2022/12/22 12:58:42;;;;;;;2.72;1.90;;;8.90;99.90;;;;;;20193492;29;20132;-61
2022/12/22 13:09:04;;;;;;;4.60;3.20;;;8.80;99.90;;;;;;20175506;29;20125;-61
2022/12/22 13:19:18;;;;;;;3.15;1.75;;;6.50;99.90;;;;;;20173569;29;20070;-61
2022/12/22 13:29:23;;;;;;;4.93;3.10;;;6.10;99.90;;;;;;20193731;29;20041;-60
2022/12/22 13:39:25;;;;;;;4.65;2.90;;;6.10;99.90;;;;;;20176419;29;20106;-61
2022/12/22 13:49:28;;;;;;;4.10;3.00;;;6.10;99.90;;;;;;20188391;29;20049;-61
2022/12/22 13:59:34;;;;;;;5.95;2.97;;;5.90;99.90;;;;;;20191622;29;20515;-61
2022/12/22 14:09:36;;;;;;;5.95;2.80;;;5.50;99.90;;;;;;20190435;29;20041;-61
2022/12/22 14:19:37;;;;;;;6.18;4.40;;;5.40;99.90;;;;;;20170777;29;20085;-61
2022/12/22 14:29:39;;;;;;;6.97;4.85;;;5.20;99.90;;;;;;20170258;29;20109;-61
2022/12/22 14:39:41;;;;;;;6.75;4.70;;;4.70;99.90;;;;;;20171085;29;20473;-61
2022/12/22 14:49:53;;;;;;;6.15;4.57;;;4.60;99.90;;;;;;20170020;29;20381;-60
2022/12/22 15:00:21;;;;;;;7.32;4.60;;;4.30;99.90;;;;;;20183775;29;20041;-61
2022/12/22 15:10:25;;;;;;;6.30;3.85;;;4.00;99.90;;;;;;20180580;29;20049;-61
2022/12/22 15:20:28;;;;;;;6.15;3.60;;;3.60;99.90;;;;;;20183355;29;20555;-61
2022/12/22 15:30:29;;;;;;;4.03;2.50;;;3.60;99.90;;;;;;20182968;29;20037;-60
2022/12/22 15:40:31;;;;;;;4.00;2.10;;;3.30;99.90;;;;;;20183607;29;20082;-61
2022/12/22 15:50:39;;;;;;;1.48;0.98;;;3.20;99.90;;;;;;20186396;29;20563;-60
2022/12/22 16:00:40;;;;;;;0.10;0.10;;;3.90;99.90;;;;;;20166003;29;20500;-61
2022/12/22 16:10:43;;;;;;;0.20;0.10;;;4.50;99.90;;;;;;20191932;29;20049;-61
2022/12/22 16:20:46;;;;;;;0.28;0.03;;;6.60;99.90;;;;;;20198807;29;20053;-61
2022/12/22 16:30:48;;;;;;;2.83;1.40;;;7.10;99.90;;;;;;20193769;29;20045;-61
2022/12/22 16:40:52;;;;;;;2.92;1.73;;;6.50;99.90;;;;;;20197114;29;20723;-60
2022/12/22 16:50:53;;;;;;;0.10;0.03;;;4.70;99.90;;;;;;20178897;29;20045;-59
2022/12/22 17:00:55;;;;;;;0.17;0.00;;;6.70;99.90;;;;;;20192732;29;20059;-60
2022/12/22 17:10:59;;;;;;;0.38;0.10;;;7.60;96.80;;;;;;20175414;29;20049;-61
2022/12/22 17:21:03;;;;;;;0.00;0.00;;;7.70;95.40;;;;;;20177401;29;20413;-61
2022/12/22 17:31:05;;;;;;;2.20;1.40;;;8.40;93.60;;;;;;20185570;29;20052;-60
2022/12/22 17:41:12;;;;;;;0.38;0.00;;;8.00;99.60;;;;;;20192872;29;20049;-61
2022/12/22 17:51:24;;;;;;;0.30;0.10;;;7.50;94.60;;;;;;20192057;29;20053;-59
2022/12/22 18:01:28;;;;;;;3.58;2.35;;;7.80;92.80;;;;;;20188246;29;20045;-61
2022/12/22 18:11:30;;;;;;;6.57;3.75;;;8.10;99.40;;;;;;20173105;29;20112;-61
2022/12/22 18:21:32;;;;;;;0.28;0.10;;;5.90;99.90;;;;;;20188427;29;20049;-60
2022/12/22 18:31:33;;;;;;;0.40;0.10;;;4.60;99.90;;;;;;20185230;29;20045;-60
2022/12/22 18:41:36;;;;;;;0.10;0.00;;;8.00;91.70;;;;;;20187113;29;20057;-60
2022/12/22 18:51:38;;;;;;;0.20;0.00;;;9.10;90.50;;;;;;20185971;29;20048;-60
2022/12/22 19:01:39;;;;;;;3.42;1.85;;;8.20;91.20;;;;;;20184550;29;20041;-61
2022/12/22 19:11:42;;;;;;;6.75;3.58;;;6.90;99.90;;;;;;20168142;29;20101;-60
2022/12/22 19:21:45;;;;;;;3.05;1.92;;;5.70;99.90;;;;;;20169880;29;20074;-59
2022/12/22 19:31:47;;;;;;;2.88;1.23;;;6.20;99.90;;;;;;20183286;29;20105;-60
2022/12/22 19:41:51;;;;;;;5.40;3.28;;;5.10;99.90;;;;;;20171005;29;20104;-60
2022/12/22 19:51:55;;;;;;;5.13;2.90;;;5.00;99.90;;;;;;20183667;29;20196;-60
2022/12/22 20:01:57;;;;;;;10.02;5.75;;;4.00;99.90;;;;;;20193731;29;20101;-56
2022/12/22 20:11:59;;;;;;;2.03;0.93;;;4.50;99.90;;;;;;20198642;29;20560;-59
2022/12/22 20:22:01;;;;;;;7.53;4.47;;;5.60;99.90;;;;;;20196733;29;20053;-59
2022/12/22 20:32:03;;;;;;;7.35;4.72;;;5.90;99.90;;;;;;20195043;29;20109;-60
2022/12/22 20:42:05;;;;;;;7.53;5.00;;;4.10;99.90;;;;;;20195839;29;20054;-60
2022/12/22 20:52:16;;;;;;;8.82;5.55;;;3.40;99.90;;;;;;20194610;29;20045;-61
2022/12/22 21:02:26;;;;;;;7.93;4.63;;;3.00;99.90;;;;;;20176109;29;20068;-62
2022/12/22 21:12:27;;;;;;;7.95;4.68;;;2.90;99.90;;;;;;20192444;29;20101;-60
2022/12/22 21:22:29;;;;;;;4.05;2.67;;;2.90;99.90;;;;;;20193959;29;20033;-60
2022/12/22 21:32:31;;;;;;;3.70;2.55;;;3.00;99.90;;;;;;20190229;29;20053;-60
2022/12/22 21:42:33;;;;;;;3.15;2.10;;;3.20;99.90;;;;;;20192596;29;20041;-60
2022/12/22 21:52:35;;;;;;;5.78;2.90;;;3.40;99.90;;;;;;20175004;29;20041;-60
2022/12/22 22:02:37;;;;;;;3.20;2.10;;;3.10;99.90;;;;;;20188485;29;20056;-60
2022/12/22 22:12:39;;;;;;;3.17;2.05;;;2.50;99.90;;;;;;20189049;29;20188;-58
2022/12/22 22:22:43;;;;;;;3.83;2.50;;;2.20;99.90;;;;;;20187937;29;20041;-60
2022/12/22 22:32:45;;;;;;;4.18;2.53;;;1.80;99.90;;;;;;20186047;29;20105;-60
2022/12/22 22:42:47;;;;;;;4.60;3.13;;;1.50;99.90;;;;;;20186991;29;20109;-61
2022/12/22 22:52:49;;;;;;;3.92;2.40;;;1.30;99.90;;;;;;20185880;29;20552;-62
2022/12/22 23:02:51;;;;;;;3.92;2.00;;;1.30;99.90;;;;;;20167858;29;20045;-60
2022/12/22 23:12:53;;;;;;;2.92;1.70;;;1.30;99.90;;;;;;20167810;29;20045;-60
2022/12/22 23:22:54;;;;;;;2.85;1.88;;;1.20;99.90;;;;;;20294243;23;20064;-45
2022/12/22 23:32:56;;;;;;;4.75;1.77;;;1.00;99.90;;;;;;20453598;23;20056;-50
2022/12/22 23:42:58;;;;;;;2.85;1.80;;;1.10;99.90;;;;;;20453843;23;20061;-43
2022/12/22 23:52:59;;;;;;;2.13;1.50;;;1.30;99.90;;;;;;20458493;23;20112;-51
